createdAt,value
2023-02-23T00:01:55.209Z,64.40
2023-02-23T00:04:23.564Z,75.37
2023-02-23T00:06:54.162Z,70.97
2023-02-23T00:09:24.441Z,67.93
2023-02-23T00:11:53.242Z,74.70
2023-02-23T00:14:20.190Z,72.93
2023-02-23T00:16:46.982Z,69.50
2023-02-23T00:19:14.079Z,76.23
2023-02-23T00:21:41.520Z,76.90
2023-02-23T00:24:10.921Z,80.77
2023-02-23T00:26:39.889Z,73.70
2023-02-23T00:29:10.954Z,70.47
2023-02-23T00:31:38.645Z,74.80
2023-02-23T00:34:07.375Z,74.60
2023-02-23T00:36:35.530Z,77.50
2023-02-23T00:39:18.799Z,79.50
2023-02-23T00:41:46.593Z,74.50
2023-02-23T00:44:15.250Z,75.10
2023-02-23T00:46:43.598Z,77.97
2023-02-23T00:49:12.404Z,73.10
2023-02-23T00:51:39.277Z,76.80
2023-02-23T00:54:07.184Z,75.67
2023-02-23T00:56:34.112Z,78.33
2023-02-23T00:59:01.170Z,72.03
2023-02-23T01:01:28.506Z,72.53
2023-02-23T01:03:55.447Z,73.10
2023-02-23T01:06:22.355Z,76.13
2023-02-23T01:08:52.783Z,74.73
2023-02-23T01:11:22.194Z,70.30
2023-02-23T01:13:52.563Z,75.27
2023-02-23T01:16:22.117Z,80.57
2023-02-23T01:18:49.504Z,89.43
2023-02-23T01:21:17.390Z,83.37
2023-02-23T01:23:44.725Z,79.83
2023-02-23T01:26:23.435Z,73.70
2023-02-23T01:29:01.487Z,85.53
2023-02-23T01:31:29.827Z,85.43
2023-02-23T01:33:58.834Z,86.20
2023-02-23T01:36:26.291Z,80.17
2023-02-23T01:38:56.446Z,76.27
2023-02-23T01:41:24.853Z,85.10
2023-02-23T01:44:08.971Z,84.07
2023-02-23T01:46:41.159Z,92.60
2023-02-23T01:49:15.341Z,87.60
2023-02-23T01:51:49.873Z,80.60
2023-02-23T01:54:21.328Z,81.40
2023-02-23T01:56:57.890Z,80.37
2023-02-23T01:59:34.095Z,87.10
2023-02-23T02:02:04.942Z,85.57
2023-02-23T02:04:45.314Z,86.20
2023-02-23T02:07:16.129Z,87.90
2023-02-23T02:10:21.969Z,90.60
2023-02-23T02:12:56.033Z,86.90
2023-02-23T02:15:28.180Z,81.57
2023-02-23T02:18:26.441Z,85.30
2023-02-23T02:21:17.993Z,78.10
2023-02-23T02:24:08.152Z,82.77
2023-02-23T02:27:13.453Z,84.97
2023-02-23T02:29:51.263Z,89.83
2023-02-23T02:32:39.242Z,83.20
2023-02-23T02:35:31.250Z,86.03
2023-02-23T02:38:21.670Z,88.67
2023-02-23T02:41:07.501Z,93.00
2023-02-23T02:43:50.919Z,97.40
2023-02-23T02:46:29.655Z,91.87
2023-02-23T02:49:26.582Z,95.63
2023-02-23T02:51:58.264Z,93.43
2023-02-23T02:54:36.362Z,86.80
2023-02-23T02:57:05.518Z,91.77
2023-02-23T03:00:05.004Z,92.20
2023-02-23T03:02:52.267Z,93.47
2023-02-23T03:05:40.446Z,92.23
2023-02-23T03:08:57.777Z,88.60
2023-02-23T03:11:52.064Z,96.23
2023-02-23T03:14:54.946Z,92.83
2023-02-23T03:17:56.274Z,95.07
2023-02-23T03:21:00.516Z,94.47
2023-02-23T03:24:07.889Z,99.80
2023-02-23T03:27:10.941Z,102.33
2023-02-23T03:30:11.323Z,96.97
2023-02-23T03:33:06.801Z,99.17
2023-02-23T03:36:09.871Z,102.43
2023-02-23T03:39:31.766Z,98.97
2023-02-23T03:42:22.813Z,91.93
2023-02-23T03:45:12.677Z,92.87
2023-02-23T03:48:00.345Z,97.40
2023-02-23T03:50:51.930Z,95.80
2023-02-23T03:53:45.515Z,95.50
2023-02-23T03:56:34.576Z,90.40
2023-02-23T03:59:22.471Z,95.27
2023-02-23T04:02:10.954Z,93.00
2023-02-23T04:04:57.931Z,91.67
2023-02-23T04:07:43.927Z,90.07
2023-02-23T04:10:30.165Z,95.57
2023-02-23T04:13:16.771Z,89.13
2023-02-23T04:15:55.503Z,95.67
2023-02-23T04:18:26.156Z,92.93
2023-02-23T04:20:53.532Z,87.53
2023-02-23T04:23:22.702Z,90.57
2023-02-23T04:25:50.665Z,84.70
2023-02-23T04:28:17.855Z,95.87
2023-02-23T04:30:44.960Z,95.33
2023-02-23T04:33:11.652Z,92.57
2023-02-23T04:35:38.343Z,95.37
2023-02-23T04:38:05.298Z,97.60
2023-02-23T04:40:32.777Z,98.97
2023-02-23T04:42:59.524Z,96.03
2023-02-23T04:45:26.830Z,101.50
2023-02-23T04:47:53.614Z,97.60
2023-02-23T04:50:20.801Z,104.80
2023-02-23T04:52:47.738Z,97.57
2023-02-23T04:55:20.044Z,98.67
2023-02-23T04:57:46.939Z,104.63
2023-02-23T05:00:14.237Z,107.27
2023-02-23T05:02:41.051Z,102.80
2023-02-23T05:05:09.198Z,119.20
2023-02-23T05:07:36.678Z,104.57
2023-02-23T05:10:04.870Z,95.27
2023-02-23T05:12:32.193Z,100.50
2023-02-23T05:14:59.200Z,106.10
2023-02-23T05:17:26.363Z,99.27
2023-02-23T05:19:53.523Z,102.40
2023-02-23T05:22:20.504Z,103.70
2023-02-23T05:24:47.681Z,109.07
2023-02-23T05:27:15.424Z,97.93
2023-02-23T05:29:42.557Z,93.47
2023-02-23T05:32:09.375Z,95.37
2023-02-23T05:34:37.340Z,102.37
2023-02-23T05:37:04.003Z,97.70
2023-02-23T05:39:31.417Z,86.77
2023-02-23T05:41:58.141Z,85.73
2023-02-23T05:44:25.160Z,87.33
2023-02-23T05:46:51.956Z,83.73
2023-02-23T05:49:18.649Z,75.23
2023-02-23T05:51:45.288Z,73.37
2023-02-23T05:54:13.946Z,75.60
2023-02-23T05:56:42.254Z,70.67
2023-02-23T05:59:08.992Z,70.23
2023-02-23T06:01:35.774Z,73.67
2023-02-23T06:04:03.605Z,72.50
2023-02-23T06:06:31.845Z,72.60
2023-02-23T06:08:58.531Z,65.63
2023-02-23T06:11:25.252Z,71.93
2023-02-23T06:13:52.288Z,67.83
2023-02-23T06:16:19.220Z,67.07
2023-02-23T06:18:46.152Z,71.40
2023-02-23T06:21:13.103Z,66.17
2023-02-23T06:23:39.739Z,65.70
2023-02-23T06:26:07.654Z,64.20
2023-02-23T06:28:34.929Z,67.07
2023-02-23T06:31:01.692Z,64.07
2023-02-23T06:33:28.460Z,65.93
2023-02-23T06:35:56.008Z,66.83
2023-02-23T06:38:23.816Z,72.40
2023-02-23T06:40:50.476Z,83.23
2023-02-23T06:43:17.110Z,79.73
2023-02-23T06:45:43.823Z,65.40
2023-02-23T06:48:10.621Z,75.27
2023-02-23T06:50:37.326Z,93.87
2023-02-23T06:53:04.912Z,82.23
2023-02-23T06:55:32.540Z,98.67
2023-02-23T06:57:59.249Z,105.37
2023-02-23T07:00:26.171Z,104.27
2023-02-23T07:02:52.923Z,108.13
2023-02-23T07:05:19.788Z,113.43
2023-02-23T07:07:46.526Z,111.50
2023-02-23T07:10:13.288Z,114.23
2023-02-23T07:12:40.125Z,102.10
2023-02-23T07:15:07.423Z,97.27
2023-02-23T07:17:34.223Z,104.57
2023-02-23T07:20:00.908Z,102.60
2023-02-23T07:22:30.175Z,93.07
2023-02-23T07:24:57.624Z,102.03
2023-02-23T07:27:24.727Z,101.40
2023-02-23T07:29:51.400Z,105.37
2023-02-23T07:32:18.327Z,115.10
2023-02-23T07:34:45.876Z,116.43
2023-02-23T07:37:12.584Z,117.53
2023-02-23T07:39:39.475Z,109.10
2023-02-23T07:42:06.191Z,112.20
2023-02-23T07:44:32.896Z,105.73
2023-02-23T07:46:59.508Z,108.00
2023-02-23T07:49:26.271Z,117.80
2023-02-23T07:51:52.894Z,120.67
2023-02-23T07:54:19.631Z,125.97
2023-02-23T07:56:46.395Z,116.70
2023-02-23T07:59:14.081Z,120.40
2023-02-23T08:01:40.749Z,127.70
2023-02-23T08:04:08.006Z,122.30
2023-02-23T08:06:34.655Z,133.30
2023-02-23T08:09:02.440Z,124.80
2023-02-23T08:11:29.215Z,128.03
2023-02-23T08:14:00.259Z,134.10
2023-02-23T08:16:31.608Z,126.97
2023-02-23T08:18:59.428Z,128.00
2023-02-23T08:21:29.149Z,121.23
2023-02-23T08:23:57.082Z,137.17
2023-02-23T08:26:25.235Z,140.37
2023-02-23T08:28:53.175Z,126.30
2023-02-23T08:31:24.348Z,127.73
2023-02-23T08:33:51.914Z,130.27
2023-02-23T08:36:18.851Z,131.37
2023-02-23T08:38:45.507Z,137.43
2023-02-23T08:41:12.326Z,128.77
2023-02-23T08:43:39.178Z,125.57
2023-02-23T08:46:07.001Z,111.77
2023-02-23T08:48:34.788Z,117.57
2023-02-23T08:51:01.870Z,90.57
2023-02-23T08:53:29.648Z,90.07
2023-02-23T08:56:00.690Z,93.10
2023-02-23T08:58:28.747Z,93.27
2023-02-23T09:00:55.557Z,94.67
2023-02-23T09:03:22.793Z,90.20
2023-02-23T09:05:49.789Z,86.37
2023-02-23T09:08:16.469Z,88.37
2023-02-23T09:10:46.118Z,90.30
2023-02-23T09:13:13.037Z,90.40
2023-02-23T09:15:41.064Z,87.10
2023-02-23T09:18:11.370Z,95.33
2023-02-23T09:20:41.814Z,89.00
2023-02-23T09:23:08.541Z,89.03
2023-02-23T09:25:45.615Z,90.53
2023-02-23T09:28:15.031Z,90.33
2023-02-23T09:30:43.017Z,89.83
2023-02-23T09:33:10.343Z,87.97
2023-02-23T09:35:37.511Z,88.17
2023-02-23T09:38:06.301Z,94.93
2023-02-23T09:40:49.617Z,92.87
2023-02-23T09:43:22.531Z,90.93
2023-02-23T09:46:03.523Z,82.63
2023-02-23T09:48:30.401Z,89.77
2023-02-23T09:50:59.708Z,90.03
2023-02-23T09:53:34.336Z,83.93
2023-02-23T09:56:07.117Z,88.23
2023-02-23T09:58:34.544Z,87.57
2023-02-23T10:01:39.385Z,80.37
2023-02-23T10:04:19.800Z,93.07
2023-02-23T10:06:54.687Z,90.73
2023-02-23T10:09:42.159Z,96.37
2023-02-23T10:12:33.893Z,90.57
2023-02-23T10:15:12.972Z,90.33
2023-02-23T10:18:05.174Z,88.47
2023-02-23T10:20:53.236Z,102.63
2023-02-23T10:23:31.590Z,110.93
2023-02-23T10:26:01.019Z,100.63
2023-02-23T10:28:33.073Z,116.57
2023-02-23T10:31:00.613Z,117.57
2023-02-23T10:33:38.124Z,121.13
2023-02-23T10:36:19.561Z,112.97
2023-02-23T10:38:46.886Z,115.27
2023-02-23T10:41:15.076Z,111.57
2023-02-23T10:43:41.955Z,105.03
2023-02-23T10:46:18.007Z,108.53
2023-02-23T10:48:45.950Z,125.20
2023-02-23T10:51:25.593Z,106.10
2023-02-23T10:53:53.635Z,105.70
2023-02-23T10:56:22.098Z,97.60
2023-02-23T10:58:55.017Z,90.53
2023-02-23T11:01:33.477Z,98.67
2023-02-23T11:04:26.569Z,84.67
2023-02-23T11:07:16.542Z,85.87
2023-02-23T11:09:47.534Z,59.93
2023-02-23T11:12:39.521Z,77.67
2023-02-23T11:15:32.117Z,75.47
2023-02-23T11:18:06.690Z,78.90
2023-02-23T11:20:40.279Z,78.23
2023-02-23T11:23:21.486Z,78.23
2023-02-23T11:25:50.812Z,70.33
2023-02-23T11:28:22.303Z,63.00
2023-02-23T11:30:49.913Z,78.20
2023-02-23T11:33:19.687Z,79.53
2023-02-23T11:35:46.626Z,79.93
2023-02-23T11:38:24.116Z,76.03
2023-02-23T11:41:07.155Z,86.97
2023-02-23T11:43:33.807Z,82.13
2023-02-23T11:46:02.590Z,87.73
2023-02-23T11:48:48.383Z,87.13
2023-02-23T11:51:25.257Z,75.10
2023-02-23T11:53:52.542Z,82.47
2023-02-23T11:56:22.507Z,74.63
2023-02-23T11:58:53.656Z,79.20
2023-02-23T12:01:44.652Z,67.13
2023-02-23T12:04:29.084Z,54.93
2023-02-23T12:07:24.475Z,67.60
2023-02-23T12:10:02.388Z,64.90
2023-02-23T12:12:31.859Z,71.23
2023-02-23T12:15:11.735Z,78.90
2023-02-23T12:17:43.847Z,87.27
2023-02-23T12:20:14.108Z,80.07
2023-02-23T12:22:49.247Z,79.47
2023-02-23T12:25:40.678Z,79.43
2023-02-23T12:28:27.168Z,89.90
2023-02-23T12:30:56.681Z,75.17
2023-02-23T12:33:38.669Z,82.03
2023-02-23T12:36:35.016Z,81.63
2023-02-23T12:39:10.485Z,88.63
2023-02-23T12:41:43.255Z,85.30
2023-02-23T12:44:34.226Z,82.07
2023-02-23T12:47:24.700Z,77.00
2023-02-23T12:50:12.581Z,84.33
2023-02-23T12:52:57.505Z,90.00
2023-02-23T12:55:40.069Z,79.83
2023-02-23T12:58:47.778Z,88.93
2023-02-23T13:01:24.579Z,83.30
2023-02-23T13:04:19.909Z,83.17
2023-02-23T13:07:14.711Z,75.70
2023-02-23T13:09:47.564Z,66.23
2023-02-23T13:12:40.726Z,67.30
2023-02-23T13:15:24.597Z,81.20
2023-02-23T13:18:09.073Z,82.17
2023-02-23T13:20:42.326Z,81.23
2023-02-23T13:23:26.379Z,79.33
2023-02-23T13:26:16.613Z,80.13
2023-02-23T13:28:59.557Z,77.33
2023-02-23T13:31:28.114Z,78.27
2023-02-23T13:33:57.651Z,68.93
2023-02-23T13:36:28.218Z,73.43
2023-02-23T13:39:25.072Z,74.37
2023-02-23T13:42:30.805Z,81.20
2023-02-23T13:45:38.757Z,69.53
2023-02-23T13:48:32.433Z,72.50
2023-02-23T13:51:23.505Z,76.67
2023-02-23T13:54:16.096Z,75.90
2023-02-23T13:56:48.180Z,74.30
2023-02-23T13:59:24.451Z,82.10
2023-02-23T14:01:53.406Z,73.73
2023-02-23T14:04:24.480Z,81.70
2023-02-23T14:07:03.922Z,85.00
2023-02-23T14:09:35.299Z,86.63
2023-02-23T14:12:07.571Z,89.33
2023-02-23T14:14:34.215Z,87.83
2023-02-23T14:17:15.900Z,87.13
2023-02-23T14:20:01.747Z,99.30
2023-02-23T14:22:28.462Z,88.93
2023-02-23T14:25:32.542Z,95.57
2023-02-23T14:28:23.503Z,93.07
2023-02-23T14:31:12.103Z,110.23
2023-02-23T14:33:41.637Z,103.03
2023-02-23T14:36:26.635Z,86.17
2023-02-23T14:38:56.096Z,87.90
2023-02-23T14:41:35.860Z,79.10
2023-02-23T14:44:34.428Z,81.60
2023-02-23T14:47:12.319Z,92.03
2023-02-23T14:49:45.216Z,76.47
2023-02-23T14:52:41.333Z,76.23
2023-02-23T14:55:11.026Z,71.70
2023-02-23T14:57:39.916Z,62.70
2023-02-23T15:00:16.117Z,74.27
2023-02-23T15:03:08.866Z,73.80
2023-02-23T15:06:01.468Z,74.67
2023-02-23T15:08:30.771Z,67.50
2023-02-23T15:11:03.942Z,63.60
2023-02-23T15:13:40.643Z,73.93
2023-02-23T15:16:18.728Z,65.17
2023-02-23T15:19:29.048Z,73.17
2023-02-23T15:21:58.062Z,72.10
2023-02-23T15:24:33.234Z,70.17
2023-02-23T15:27:00.177Z,72.30
2023-02-23T15:29:32.968Z,60.77
2023-02-23T15:32:19.799Z,75.57
2023-02-23T15:34:48.154Z,76.37
2023-02-23T15:37:23.725Z,65.87
2023-02-23T15:39:57.003Z,72.67
2023-02-23T15:42:34.777Z,68.53
2023-02-23T15:45:04.210Z,58.03
2023-02-23T15:47:37.101Z,56.70
2023-02-23T15:50:12.575Z,61.37
2023-02-23T15:52:49.343Z,58.47
2023-02-23T15:55:24.261Z,58.90
2023-02-23T15:58:00.334Z,50.87
2023-02-23T16:00:38.267Z,55.23
2023-02-23T16:03:07.001Z,54.10
2023-02-23T16:05:47.077Z,55.13
2023-02-23T16:08:23.940Z,53.10
2023-02-23T16:10:55.033Z,55.77
2023-02-23T16:13:22.531Z,55.67
2023-02-23T16:15:50.211Z,52.70
2023-02-23T16:18:20.008Z,47.70
2023-02-23T16:20:58.662Z,48.90
2023-02-23T16:23:37.110Z,54.17
2023-02-23T16:26:15.777Z,52.70
2023-02-23T16:28:45.232Z,50.00
2023-02-23T16:31:14.047Z,52.03
2023-02-23T16:33:50.895Z,57.97
2023-02-23T16:36:23.606Z,51.27
2023-02-23T16:39:00.266Z,56.03
2023-02-23T16:41:31.828Z,61.23
2023-02-23T16:44:05.050Z,64.20
2023-02-23T16:46:56.429Z,63.37
2023-02-23T16:49:23.532Z,71.47
2023-02-23T16:51:51.623Z,68.17
2023-02-23T16:54:18.546Z,70.23
2023-02-23T16:56:46.990Z,71.83
2023-02-23T16:59:17.216Z,75.33
2023-02-23T17:01:46.473Z,78.60
2023-02-23T17:04:17.216Z,81.57
2023-02-23T17:06:52.667Z,80.10
2023-02-23T17:09:19.322Z,79.97
2023-02-23T17:11:46.947Z,93.40
2023-02-23T17:14:24.886Z,87.13
2023-02-23T17:16:52.067Z,102.33
2023-02-23T17:19:18.873Z,91.97
2023-02-23T17:21:46.686Z,96.77
2023-02-23T17:24:13.350Z,77.57
2023-02-23T17:26:41.954Z,78.70
2023-02-23T17:29:08.644Z,82.27
2023-02-23T17:31:37.805Z,80.43
2023-02-23T17:34:04.793Z,69.10
2023-02-23T17:36:31.440Z,80.13
2023-02-23T17:38:58.720Z,66.67
2023-02-23T17:41:27.022Z,79.33
2023-02-23T17:43:53.841Z,78.23
2023-02-23T17:46:20.840Z,78.03
2023-02-23T17:48:47.588Z,67.87
2023-02-23T17:51:16.590Z,73.00
2023-02-23T17:53:44.756Z,67.03
2023-02-23T17:56:11.556Z,73.90
2023-02-23T17:58:39.472Z,73.00
2023-02-23T18:01:07.314Z,72.27
2023-02-23T18:03:36.454Z,61.77
2023-02-23T18:06:09.157Z,71.93
2023-02-23T18:08:36.947Z,67.53
2023-02-23T18:11:03.752Z,70.83
2023-02-23T18:13:33.172Z,76.60
2023-02-23T18:16:02.976Z,79.60
2023-02-23T18:18:30.125Z,72.23
2023-02-23T18:20:59.278Z,69.10
2023-02-23T18:23:35.760Z,76.63
2023-02-23T18:26:11.420Z,75.53
2023-02-23T18:28:39.886Z,73.70
2023-02-23T18:31:07.059Z,69.33
2023-02-23T18:33:35.868Z,77.57
2023-02-23T18:36:03.825Z,65.77
2023-02-23T18:38:30.575Z,78.20
2023-02-23T18:40:58.326Z,71.73
2023-02-23T18:43:25.004Z,77.10
2023-02-23T18:45:51.653Z,72.13
2023-02-23T18:48:18.365Z,74.67
2023-02-23T18:50:45.003Z,76.20
2023-02-23T18:53:11.659Z,76.40
2023-02-23T18:55:38.544Z,83.60
2023-02-23T18:58:05.924Z,72.20
2023-02-23T19:00:39.894Z,75.87
2023-02-23T19:03:07.331Z,86.00
2023-02-23T19:05:36.183Z,77.23
2023-02-23T19:08:13.346Z,82.77
2023-02-23T19:10:40.694Z,82.37
2023-02-23T19:13:08.930Z,82.57
2023-02-23T19:15:35.983Z,79.93
2023-02-23T19:18:03.948Z,68.57
2023-02-23T19:20:32.721Z,93.00
2023-02-23T19:22:59.485Z,83.17
2023-02-23T19:25:26.139Z,85.77
2023-02-23T19:27:53.051Z,76.60
2023-02-23T19:30:19.736Z,72.20
2023-02-23T19:32:46.748Z,85.30
2023-02-23T19:35:14.828Z,73.90
2023-02-23T19:37:49.164Z,81.07
2023-02-23T19:40:20.759Z,71.00
2023-02-23T19:42:49.541Z,77.70
2023-02-23T19:45:17.717Z,72.83
2023-02-23T19:47:44.540Z,68.53
2023-02-23T19:50:18.720Z,73.03
2023-02-23T19:52:46.824Z,58.63
2023-02-23T19:55:13.863Z,65.17
2023-02-23T19:57:41.376Z,61.90
2023-02-23T20:00:11.973Z,64.30
2023-02-23T20:02:42.733Z,58.23
2023-02-23T20:05:15.459Z,53.10
2023-02-23T20:07:42.801Z,57.67
2023-02-23T20:10:15.955Z,62.07
2023-02-23T20:12:43.188Z,56.60
2023-02-23T20:15:10.312Z,55.30
2023-02-23T20:17:37.093Z,55.17
2023-02-23T20:20:06.147Z,63.43
2023-02-23T20:22:36.274Z,54.03
2023-02-23T20:25:06.089Z,66.30
2023-02-23T20:27:35.032Z,56.40
2023-02-23T20:30:02.324Z,57.23
2023-02-23T20:32:29.118Z,56.87
2023-02-23T20:35:00.555Z,49.40
2023-02-23T20:37:27.354Z,51.00
2023-02-23T20:39:54.043Z,49.83
2023-02-23T20:42:20.689Z,58.23
2023-02-23T20:44:47.338Z,59.17
2023-02-23T20:47:13.992Z,57.50
2023-02-23T20:49:41.192Z,58.63
2023-02-23T20:52:07.905Z,57.17
2023-02-23T20:54:34.548Z,48.03
2023-02-23T20:57:07.678Z,66.90
2023-02-23T20:59:38.977Z,61.80
2023-02-23T21:02:08.057Z,64.07
2023-02-23T21:04:35.810Z,57.20
2023-02-23T21:07:05.265Z,56.57
2023-02-23T21:09:32.750Z,53.10
2023-02-23T21:11:59.438Z,63.50
2023-02-23T21:14:26.082Z,63.80
2023-02-23T21:16:53.110Z,57.33
2023-02-23T21:19:20.174Z,57.67
2023-02-23T21:21:50.371Z,49.83
2023-02-23T21:24:18.920Z,53.27
2023-02-23T21:26:45.652Z,53.27
2023-02-23T21:29:14.807Z,58.03
2023-02-23T21:31:43.428Z,52.50
2023-02-23T21:34:10.980Z,57.90
2023-02-23T21:36:38.088Z,56.20
2023-02-23T21:39:06.301Z,56.93
2023-02-23T21:41:34.052Z,66.30
2023-02-23T21:44:03.575Z,60.70
2023-02-23T21:46:30.281Z,61.87
2023-02-23T21:48:57.000Z,58.93
2023-02-23T21:51:24.098Z,53.27
2023-02-23T21:53:50.916Z,55.90
2023-02-23T21:56:22.366Z,49.17
2023-02-23T21:58:51.727Z,62.30
2023-02-23T22:01:24.578Z,60.53
2023-02-23T22:03:51.700Z,62.60
2023-02-23T22:06:21.353Z,66.50
2023-02-23T22:08:51.192Z,59.77
2023-02-23T22:11:21.207Z,57.90
2023-02-23T22:13:50.077Z,60.03
2023-02-23T22:16:19.185Z,58.97
2023-02-23T22:18:46.520Z,63.13
2023-02-23T22:21:13.800Z,63.60
2023-02-23T22:23:43.653Z,61.93
2023-02-23T22:26:11.112Z,67.10
2023-02-23T22:28:37.836Z,57.30
2023-02-23T22:31:09.802Z,62.67
2023-02-23T22:33:38.438Z,64.90
2023-02-23T22:36:08.043Z,63.97
2023-02-23T22:38:35.241Z,73.33
2023-02-23T22:41:02.048Z,62.10
2023-02-23T22:43:30.532Z,68.67
2023-02-23T22:45:58.563Z,59.60
2023-02-23T22:48:25.272Z,67.43
2023-02-23T22:50:51.961Z,76.80
2023-02-23T22:53:18.657Z,72.60
2023-02-23T22:55:49.857Z,80.83
2023-02-23T22:58:16.663Z,80.90
2023-02-23T23:01:02.260Z,74.43
2023-02-23T23:03:32.280Z,70.17
2023-02-23T23:06:02.529Z,70.73
2023-02-23T23:08:40.832Z,68.47
2023-02-23T23:11:11.107Z,71.03
2023-02-23T23:13:44.447Z,69.33
2023-02-23T23:16:29.149Z,70.80
2023-02-23T23:19:11.838Z,80.07
2023-02-23T23:21:40.822Z,75.37
2023-02-23T23:24:09.396Z,78.03
2023-02-23T23:26:39.575Z,73.33
2023-02-23T23:29:10.006Z,77.30
2023-02-23T23:31:39.990Z,71.27
2023-02-23T23:34:09.781Z,83.10
2023-02-23T23:36:53.101Z,72.97
2023-02-23T23:39:23.285Z,67.73
2023-02-23T23:41:50.575Z,78.63
2023-02-23T23:44:19.810Z,77.43
2023-02-23T23:46:47.673Z,81.23
2023-02-23T23:49:20.330Z,78.70
2023-02-23T23:51:50.377Z,85.40
2023-02-23T23:54:22.805Z,80.60
2023-02-23T23:56:50.705Z,80.40
2023-02-23T23:59:20.213Z,87.90
